sensor_id;sensor_type;location;lat;lon;timestamp;pressure;altitude;pressure_sealevel;temperature;humidity
72428;BME280;60419;48.880;18.036;2023-02-01T00:01:32;98902.66;;;3.37;69.57
72428;BME280;60419;48.880;18.036;2023-02-01T00:04:18;98901.66;;;3.49;69.56
72428;BME280;60419;48.880;18.036;2023-02-01T00:07:03;98903.16;;;3.29;69.84
72428;BME280;60419;48.880;18.036;2023-02-01T00:09:48;98899.19;;;3.37;69.38
72428;BME280;60419;48.880;18.036;2023-02-01T00:12:34;98889.25;;;3.22;70.73
72428;BME280;60419;48.880;18.036;2023-02-01T00:15:19;98891.13;;;3.22;70.12
72428;BME280;60419;48.880;18.036;2023-02-01T00:18:05;98899.22;;;3.42;69.86
72428;BME280;60419;48.880;18.036;2023-02-01T00:20:51;98893.56;;;3.28;69.72
72428;BME280;60419;48.880;18.036;2023-02-01T00:23:36;98890.69;;;3.50;69.24
72428;BME280;60419;48.880;18.036;2023-02-01T00:26:30;98881.66;;;3.56;69.38
72428;BME280;60419;48.880;18.036;2023-02-01T00:29:18;98885.34;;;3.50;69.34
72428;BME280;60419;48.880;18.036;2023-02-01T00:32:04;98879.00;;;3.62;69.14
72428;BME280;60419;48.880;18.036;2023-02-01T00:34:49;98869.88;;;3.52;69.11
72428;BME280;60419;48.880;18.036;2023-02-01T00:37:34;98860.56;;;3.65;68.98
72428;BME280;60419;48.880;18.036;2023-02-01T00:40:19;98849.84;;;3.50;68.93
72428;BME280;60419;48.880;18.036;2023-02-01T00:43:05;98853.31;;;3.50;68.68
72428;BME280;60419;48.880;18.036;2023-02-01T00:45:50;98838.66;;;3.73;68.46
72428;BME280;60419;48.880;18.036;2023-02-01T00:48:36;98825.94;;;3.02;69.80
72428;BME280;60419;48.880;18.036;2023-02-01T00:51:24;98844.94;;;3.21;69.75
72428;BME280;60419;48.880;18.036;2023-02-01T00:54:09;98840.94;;;3.24;69.48
72428;BME280;60419;48.880;18.036;2023-02-01T00:56:55;98877.84;;;3.37;68.88
72428;BME280;60419;48.880;18.036;2023-02-01T00:59:40;98876.78;;;3.43;68.08
72428;BME280;60419;48.880;18.036;2023-02-01T01:02:26;98857.28;;;3.43;67.16
72428;BME280;60419;48.880;18.036;2023-02-01T01:05:11;98876.34;;;3.87;65.25
72428;BME280;60419;48.880;18.036;2023-02-01T01:07:57;98867.81;;;4.16;64.83
72428;BME280;60419;48.880;18.036;2023-02-01T01:10:42;98852.31;;;4.43;63.44
72428;BME280;60419;48.880;18.036;2023-02-01T01:13:28;98862.75;;;4.09;63.79
72428;BME280;60419;48.880;18.036;2023-02-01T01:16:13;98866.22;;;4.10;63.62
72428;BME280;60419;48.880;18.036;2023-02-01T01:19:00;98859.28;;;4.19;63.53
72428;BME280;60419;48.880;18.036;2023-02-01T01:21:45;98856.88;;;4.22;63.49
72428;BME280;60419;48.880;18.036;2023-02-01T01:24:31;98846.72;;;4.04;63.81
72428;BME280;60419;48.880;18.036;2023-02-01T01:27:16;98834.13;;;3.99;63.84
72428;BME280;60419;48.880;18.036;2023-02-01T01:30:08;98847.75;;;3.98;64.29
72428;BME280;60419;48.880;18.036;2023-02-01T01:32:53;98854.16;;;3.71;64.38
72428;BME280;60419;48.880;18.036;2023-02-01T01:35:39;98842.94;;;3.79;64.37
72428;BME280;60419;48.880;18.036;2023-02-01T01:38:24;98872.88;;;3.81;64.80
72428;BME280;60419;48.880;18.036;2023-02-01T01:41:13;98842.69;;;3.96;64.29
72428;BME280;60419;48.880;18.036;2023-02-01T01:44:01;98852.31;;;4.02;63.98
72428;BME280;60419;48.880;18.036;2023-02-01T01:46:47;98843.78;;;3.95;63.50
72428;BME280;60419;48.880;18.036;2023-02-01T01:49:32;98848.31;;;4.05;62.89
72428;BME280;60419;48.880;18.036;2023-02-01T01:52:18;98833.59;;;3.82;63.35
72428;BME280;60419;48.880;18.036;2023-02-01T01:55:05;98843.50;;;4.07;63.04
72428;BME280;60419;48.880;18.036;2023-02-01T01:57:59;98867.81;;;4.36;62.14
72428;BME280;60419;48.880;18.036;2023-02-01T02:00:46;98846.16;;;4.22;62.33
72428;BME280;60419;48.880;18.036;2023-02-01T02:03:35;98865.94;;;4.42;61.96
72428;BME280;60419;48.880;18.036;2023-02-01T02:06:33;98861.09;;;4.59;60.11
72428;BME280;60419;48.880;18.036;2023-02-01T02:09:20;98843.50;;;4.33;60.75
72428;BME280;60419;48.880;18.036;2023-02-01T02:12:05;98842.16;;;4.25;61.54
72428;BME280;60419;48.880;18.036;2023-02-01T02:14:50;98869.94;;;4.44;60.48
72428;BME280;60419;48.880;18.036;2023-02-01T02:17:58;98842.94;;;4.36;60.55
72428;BME280;60419;48.880;18.036;2023-02-01T02:21:11;98857.41;;;4.24;61.06
72428;BME280;60419;48.880;18.036;2023-02-01T02:33:48;98865.44;;;4.30;60.52
72428;BME280;60419;48.880;18.036;2023-02-01T02:36:48;98856.88;;;4.33;60.25
72428;BME280;60419;48.880;18.036;2023-02-01T02:43:25;98858.72;;;4.42;59.82
72428;BME280;60419;48.880;18.036;2023-02-01T02:46:30;98862.75;;;4.24;60.59
72428;BME280;60419;48.880;18.036;2023-02-01T02:49:49;98865.41;;;4.50;60.21
72428;BME280;60419;48.880;18.036;2023-02-01T02:53:02;98842.16;;;4.04;61.49
72428;BME280;60419;48.880;18.036;2023-02-01T02:56:08;98856.31;;;4.41;60.33
72428;BME280;60419;48.880;18.036;2023-02-01T02:59:15;98869.44;;;4.47;60.11
72428;BME280;60419;48.880;18.036;2023-02-01T03:02:21;98856.31;;;4.25;60.69
72428;BME280;60419;48.880;18.036;2023-02-01T03:05:25;98868.09;;;4.19;59.79
72428;BME280;60419;48.880;18.036;2023-02-01T03:08:17;98850.72;;;4.07;59.74
72428;BME280;60419;48.880;18.036;2023-02-01T03:11:07;98858.44;;;4.39;59.57
72428;BME280;60419;48.880;18.036;2023-02-01T03:14:01;98864.09;;;4.32;59.84
72428;BME280;60419;48.880;18.036;2023-02-01T03:16:52;98841.06;;;4.31;59.33
72428;BME280;60419;48.880;18.036;2023-02-01T03:19:42;98877.16;;;4.54;59.68
72428;BME280;60419;48.880;18.036;2023-02-01T03:22:33;98854.72;;;4.30;59.10
72428;BME280;60419;48.880;18.036;2023-02-01T03:25:28;98867.25;;;4.55;58.87
72428;BME280;60419;48.880;18.036;2023-02-01T03:28:17;98855.53;;;4.35;58.59
72428;BME280;60419;48.880;18.036;2023-02-01T03:31:06;98858.13;;;4.76;58.58
72428;BME280;60419;48.880;18.036;2023-02-01T03:33:52;98860.06;;;4.35;59.44
72428;BME280;60419;48.880;18.036;2023-02-01T03:36:42;98852.81;;;4.56;58.66
72428;BME280;60419;48.880;18.036;2023-02-01T03:39:32;98880.31;;;4.92;58.22
72428;BME280;60419;48.880;18.036;2023-02-01T03:42:25;98843.25;;;4.24;58.92
72428;BME280;60419;48.880;18.036;2023-02-01T03:45:27;98880.66;;;4.34;58.78
72428;BME280;60419;48.880;18.036;2023-02-01T03:48:16;98886.28;;;4.53;58.19
72428;BME280;60419;48.880;18.036;2023-02-01T03:51:04;98869.38;;;4.73;57.71
72428;BME280;60419;48.880;18.036;2023-02-01T03:53:52;98873.38;;;4.81;57.27
72428;BME280;60419;48.880;18.036;2023-02-01T03:56:42;98893.19;;;4.80;57.17
72428;BME280;60419;48.880;18.036;2023-02-01T03:59:29;98887.63;;;4.35;59.04
72428;BME280;60419;48.880;18.036;2023-02-01T04:02:15;98880.91;;;4.63;57.39
72428;BME280;60419;48.880;18.036;2023-02-01T04:05:00;98877.19;;;4.29;58.20
72428;BME280;60419;48.880;18.036;2023-02-01T04:07:45;98854.97;;;4.08;58.43
72428;BME280;60419;48.880;18.036;2023-02-01T04:10:31;98860.09;;;4.24;57.90
72428;BME280;60419;48.880;18.036;2023-02-01T04:13:16;98870.78;;;4.14;57.95
72428;BME280;60419;48.880;18.036;2023-02-01T04:16:02;98878.78;;;4.24;58.01
72428;BME280;60419;48.880;18.036;2023-02-01T04:18:47;98880.13;;;4.22;57.51
72428;BME280;60419;48.880;18.036;2023-02-01T04:21:33;98880.66;;;4.34;57.88
72428;BME280;60419;48.880;18.036;2023-02-01T04:24:18;98869.16;;;4.23;58.18
72428;BME280;60419;48.880;18.036;2023-02-01T04:27:03;98884.66;;;4.37;58.62
72428;BME280;60419;48.880;18.036;2023-02-01T04:29:49;98851.22;;;3.78;59.61
72428;BME280;60419;48.880;18.036;2023-02-01T04:32:38;98859.53;;;4.07;59.17
72428;BME280;60419;48.880;18.036;2023-02-01T04:35:24;98884.13;;;4.14;60.09
72428;BME280;60419;48.880;18.036;2023-02-01T04:38:09;98883.81;;;3.75;61.17
72428;BME280;60419;48.880;18.036;2023-02-01T04:40:54;98879.56;;;3.89;61.04
72428;BME280;60419;48.880;18.036;2023-02-01T04:43:40;98890.00;;;3.91;60.65
72428;BME280;60419;48.880;18.036;2023-02-01T04:46:25;98889.41;;;3.73;60.99
72428;BME280;60419;48.880;18.036;2023-02-01T04:49:12;98888.59;;;3.63;61.01
72428;BME280;60419;48.880;18.036;2023-02-01T04:51:57;98886.75;;;3.68;61.16
72428;BME280;60419;48.880;18.036;2023-02-01T04:54:43;98884.34;;;3.82;60.97
72428;BME280;60419;48.880;18.036;2023-02-01T04:57:28;98892.84;;;3.53;61.61
72428;BME280;60419;48.880;18.036;2023-02-01T05:00:14;98904.63;;;3.63;61.83
72428;BME280;60419;48.880;18.036;2023-02-01T05:02:59;98905.19;;;3.70;62.06
72428;BME280;60419;48.880;18.036;2023-02-01T05:05:47;98896.13;;;3.86;62.22
72428;BME280;60419;48.880;18.036;2023-02-01T05:08:33;98899.31;;;3.73;62.64
72428;BME280;60419;48.880;18.036;2023-02-01T05:11:19;98901.94;;;3.57;63.35
72428;BME280;60419;48.880;18.036;2023-02-01T05:14:36;98908.88;;;3.58;62.80
72428;BME280;60419;48.880;18.036;2023-02-01T05:17:21;98909.41;;;3.55;63.40
72428;BME280;60419;48.880;18.036;2023-02-01T05:20:08;98859.88;;;3.17;63.28
72428;BME280;60419;48.880;18.036;2023-02-01T05:22:53;98909.97;;;3.63;63.01
72428;BME280;60419;48.880;18.036;2023-02-01T05:25:39;98911.81;;;3.57;63.42
72428;BME280;60419;48.880;18.036;2023-02-01T05:28:24;98909.66;;;3.49;63.88
72428;BME280;60419;48.880;18.036;2023-02-01T05:31:10;98912.88;;;3.56;63.66
72428;BME280;60419;48.880;18.036;2023-02-01T05:33:56;98907.50;;;3.51;63.55
72428;BME280;60419;48.880;18.036;2023-02-01T05:36:42;98911.22;;;3.39;63.50
72428;BME280;60419;48.880;18.036;2023-02-01T05:39:27;98912.06;;;3.55;63.49
72428;BME280;60419;48.880;18.036;2023-02-01T05:42:12;98891.53;;;3.61;63.33
72428;BME280;60419;48.880;18.036;2023-02-01T05:44:58;98902.38;;;3.34;64.33
72428;BME280;60419;48.880;18.036;2023-02-01T05:47:43;98896.28;;;3.44;63.69
72428;BME280;60419;48.880;18.036;2023-02-01T05:50:28;98881.59;;;3.41;63.11
72428;BME280;60419;48.880;18.036;2023-02-01T05:53:14;98895.81;;;3.67;62.88
72428;BME280;60419;48.880;18.036;2023-02-01T05:55:59;98897.41;;;3.58;63.56
72428;BME280;60419;48.880;18.036;2023-02-01T05:58:44;98882.16;;;3.58;63.06
72428;BME280;60419;48.880;18.036;2023-02-01T06:01:30;98887.25;;;3.60;63.19
72428;BME280;60419;48.880;18.036;2023-02-01T06:04:15;98884.81;;;3.53;63.20
72428;BME280;60419;48.880;18.036;2023-02-01T06:07:00;98902.78;;;3.78;62.29
72428;BME280;60419;48.880;18.036;2023-02-01T06:09:46;98894.53;;;3.80;62.96
72428;BME280;60419;48.880;18.036;2023-02-01T06:12:31;98895.06;;;3.92;62.31
72428;BME280;60419;48.880;18.036;2023-02-01T06:15:16;98889.47;;;3.94;61.52
72428;BME280;60419;48.880;18.036;2023-02-01T06:18:03;98893.44;;;3.76;62.31
72428;BME280;60419;48.880;18.036;2023-02-01T06:20:53;98892.38;;;3.82;61.75
72428;BME280;60419;48.880;18.036;2023-02-01T06:23:38;98892.69;;;3.96;61.43
72428;BME280;60419;48.880;18.036;2023-02-01T06:26:24;98876.66;;;3.96;60.77
72428;BME280;60419;48.880;18.036;2023-02-01T06:29:10;98872.34;;;3.90;60.48
72428;BME280;60419;48.880;18.036;2023-02-01T06:31:56;98895.84;;;3.77;61.47
72428;BME280;60419;48.880;18.036;2023-02-01T06:34:41;98890.28;;;4.35;59.69
72428;BME280;60419;48.880;18.036;2023-02-01T06:37:26;98897.22;;;4.16;59.27
72428;BME280;60419;48.880;18.036;2023-02-01T06:40:14;98903.41;;;4.21;59.18
72428;BME280;60419;48.880;18.036;2023-02-01T06:42:59;98900.72;;;4.21;58.95
72428;BME280;60419;48.880;18.036;2023-02-01T06:45:45;98902.31;;;4.02;59.44
72428;BME280;60419;48.880;18.036;2023-02-01T06:48:30;98906.84;;;4.01;59.51
72428;BME280;60419;48.880;18.036;2023-02-01T06:51:19;98913.81;;;4.43;58.16
72428;BME280;60419;48.880;18.036;2023-02-01T06:54:05;98908.22;;;4.50;57.53
72428;BME280;60419;48.880;18.036;2023-02-01T06:56:50;98920.22;;;4.94;56.82
72428;BME280;60419;48.880;18.036;2023-02-01T06:59:35;98907.09;;;4.87;56.81
72428;BME280;60419;48.880;18.036;2023-02-01T07:02:21;98902.28;;;4.79;56.36
72428;BME280;60419;48.880;18.036;2023-02-01T07:05:06;98898.03;;;4.52;57.90
72428;BME280;60419;48.880;18.036;2023-02-01T07:07:52;98873.44;;;4.14;57.59
72428;BME280;60419;48.880;18.036;2023-02-01T07:10:37;98869.97;;;4.19;58.02
72428;BME280;60419;48.880;18.036;2023-02-01T07:13:23;98870.66;;;4.91;56.56
72428;BME280;60419;48.880;18.036;2023-02-01T07:16:14;98855.53;;;4.04;57.27
72428;BME280;60419;48.880;18.036;2023-02-01T07:19:00;98912.47;;;4.31;58.21
72428;BME280;60419;48.880;18.036;2023-02-01T07:21:46;98918.09;;;4.03;60.66
72428;BME280;60419;48.880;18.036;2023-02-01T07:24:33;98909.25;;;3.88;58.26
72428;BME280;60419;48.880;18.036;2023-02-01T07:27:19;98915.94;;;3.95;58.50
72428;BME280;60419;48.880;18.036;2023-02-01T07:30:06;98915.41;;;4.29;57.62
72428;BME280;60419;48.880;18.036;2023-02-01T07:32:51;98924.25;;;4.35;57.74
72428;BME280;60419;48.880;18.036;2023-02-01T07:35:37;98912.44;;;3.95;59.11
72428;BME280;60419;48.880;18.036;2023-02-01T07:38:22;98917.53;;;4.07;59.09
72428;BME280;60419;48.880;18.036;2023-02-01T07:41:09;98920.50;;;4.36;58.16
72428;BME280;60419;48.880;18.036;2023-02-01T07:43:55;98917.00;;;4.04;60.34
72428;BME280;60419;48.880;18.036;2023-02-01T07:46:40;98900.66;;;3.80;60.82
72428;BME280;60419;48.880;18.036;2023-02-01T07:49:26;98914.56;;;3.77;60.89
72428;BME280;60419;48.880;18.036;2023-02-01T07:52:11;98889.13;;;3.54;61.66
72428;BME280;60419;48.880;18.036;2023-02-01T07:54:58;98914.78;;;3.66;61.71
72428;BME280;60419;48.880;18.036;2023-02-01T07:57:43;98904.13;;;3.76;61.52
72428;BME280;60419;48.880;18.036;2023-02-01T08:00:28;98880.59;;;3.68;62.00
72428;BME280;60419;48.880;18.036;2023-02-01T08:03:32;98914.59;;;4.23;61.21
72428;BME280;60419;48.880;18.036;2023-02-01T08:06:18;98916.44;;;3.92;61.18
72428;BME280;60419;48.880;18.036;2023-02-01T08:09:06;98906.28;;;3.94;62.41
72428;BME280;60419;48.880;18.036;2023-02-01T08:11:52;98914.72;;;3.50;64.72
72428;BME280;60419;48.880;18.036;2023-02-01T08:14:38;98916.41;;;3.77;65.08
72428;BME280;60419;48.880;18.036;2023-02-01T08:17:25;98900.81;;;3.33;66.89
72428;BME280;60419;48.880;18.036;2023-02-01T08:20:11;98889.78;;;3.19;67.27
72428;BME280;60419;48.880;18.036;2023-02-01T08:22:58;98910.91;;;3.26;67.63
72428;BME280;60419;48.880;18.036;2023-02-01T08:25:44;98881.03;;;3.34;66.66
72428;BME280;60419;48.880;18.036;2023-02-01T08:28:29;98914.19;;;3.53;67.25
72428;BME280;60419;48.880;18.036;2023-02-01T08:31:16;98907.78;;;3.49;67.58
72428;BME280;60419;48.880;18.036;2023-02-01T08:34:02;98870.56;;;3.12;68.23
72428;BME280;60419;48.880;18.036;2023-02-01T08:36:52;98897.63;;;3.46;68.05
72428;BME280;60419;48.880;18.036;2023-02-01T08:39:42;98901.13;;;3.52;67.13
72428;BME280;60419;48.880;18.036;2023-02-01T08:42:30;98893.31;;;3.40;67.35
72428;BME280;60419;48.880;18.036;2023-02-01T08:45:34;98882.97;;;3.54;66.88
72428;BME280;60419;48.880;18.036;2023-02-01T08:48:19;98882.94;;;3.38;66.79
72428;BME280;60419;48.880;18.036;2023-02-01T08:51:06;98839.38;;;3.28;67.25
72428;BME280;60419;48.880;18.036;2023-02-01T08:53:52;98879.94;;;3.30;68.01
72428;BME280;60419;48.880;18.036;2023-02-01T08:56:37;98867.16;;;3.37;67.65
72428;BME280;60419;48.880;18.036;2023-02-01T08:59:23;98884.63;;;3.70;67.24
72428;BME280;60419;48.880;18.036;2023-02-01T09:02:12;98884.03;;;3.58;67.63
72428;BME280;60419;48.880;18.036;2023-02-01T09:04:58;98886.16;;;3.56;69.70
72428;BME280;60419;48.880;18.036;2023-02-01T09:07:43;98852.03;;;2.90;71.11
72428;BME280;60419;48.880;18.036;2023-02-01T09:10:28;98876.47;;;3.29;71.57
72428;BME280;60419;48.880;18.036;2023-02-01T09:13:14;98870.34;;;3.34;70.86
72428;BME280;60419;48.880;18.036;2023-02-01T09:16:01;98857.28;;;3.43;70.35
72428;BME280;60419;48.880;18.036;2023-02-01T09:18:46;98854.28;;;3.19;71.25
72428;BME280;60419;48.880;18.036;2023-02-01T09:21:31;98845.53;;;3.33;70.58
72428;BME280;60419;48.880;18.036;2023-02-01T09:24:17;98844.16;;;3.21;71.14
72428;BME280;60419;48.880;18.036;2023-02-01T09:27:02;98859.72;;;3.49;71.21
72428;BME280;60419;48.880;18.036;2023-02-01T09:29:48;98854.44;;;3.70;70.17
72428;BME280;60419;48.880;18.036;2023-02-01T09:32:37;98843.41;;;3.51;70.38
72428;BME280;60419;48.880;18.036;2023-02-01T09:35:23;98839.97;;;3.60;70.88
72428;BME280;60419;48.880;18.036;2023-02-01T09:38:09;98841.09;;;3.80;70.37
72428;BME280;60419;48.880;18.036;2023-02-01T09:40:55;98845.09;;;3.88;70.16
72428;BME280;60419;48.880;18.036;2023-02-01T09:47:10;98836.28;;;4.18;66.11
72428;BME280;60419;48.880;18.036;2023-02-01T09:50:02;98836.81;;;4.20;65.94
72428;BME280;60419;48.880;18.036;2023-02-01T09:52:52;98841.06;;;4.31;65.45
72428;BME280;60419;48.880;18.036;2023-02-01T09:55:44;98833.84;;;4.47;65.13
72428;BME280;60419;48.880;18.036;2023-02-01T09:58:52;98843.19;;;4.44;64.65
72428;BME280;60419;48.880;18.036;2023-02-01T10:01:40;98840.81;;;4.17;65.17
72428;BME280;60419;48.880;18.036;2023-02-01T10:04:26;98848.31;;;4.00;64.87
72428;BME280;60419;48.880;18.036;2023-02-01T10:07:26;98836.53;;;4.37;64.45
72428;BME280;60419;48.880;18.036;2023-02-01T10:16:38;98817.84;;;4.21;63.36
72428;BME280;60419;48.880;18.036;2023-02-01T10:22:43;98831.41;;;4.66;62.36
72428;BME280;60419;48.880;18.036;2023-02-01T10:28:24;98844.25;;;4.69;59.91
72428;BME280;60419;48.880;18.036;2023-02-01T10:31:10;98839.66;;;4.75;60.16
72428;BME280;60419;48.880;18.036;2023-02-01T10:33:58;98837.03;;;4.54;60.46
72428;BME280;60419;48.880;18.036;2023-02-01T10:37:26;98835.63;;;4.87;61.03
72428;BME280;60419;48.880;18.036;2023-02-01T10:40:25;98837.06;;;4.39;62.61
72428;BME280;60419;48.880;18.036;2023-02-01T10:43:10;98835.97;;;3.63;65.70
72428;BME280;60419;48.880;18.036;2023-02-01T10:45:56;98839.44;;;3.69;66.90
72428;BME280;60419;48.880;18.036;2023-02-01T10:48:42;98825.81;;;3.60;66.22
72428;BME280;60419;48.880;18.036;2023-02-01T10:54:38;98839.28;;;3.07;70.67
72428;BME280;60419;48.880;18.036;2023-02-01T10:57:26;98843.13;;;2.74;72.62
72428;BME280;60419;48.880;18.036;2023-02-01T11:00:20;98845.50;;;2.28;75.08
72428;BME280;60419;48.880;18.036;2023-02-01T11:03:33;98829.97;;;2.52;75.94
72428;BME280;60419;48.880;18.036;2023-02-01T11:09:18;98827.59;;;2.18;76.83
72428;BME280;60419;48.880;18.036;2023-02-01T11:12:22;98815.31;;;2.55;76.39
72428;BME280;60419;48.880;18.036;2023-02-01T11:18:14;98808.75;;;2.83;75.76
72428;BME280;60419;48.880;18.036;2023-02-01T11:21:00;98798.34;;;2.34;76.82
72428;BME280;60419;48.880;18.036;2023-02-01T11:23:46;98766.78;;;2.15;78.76
72428;BME280;60419;48.880;18.036;2023-02-01T11:26:33;98782.13;;;2.35;77.85
72428;BME280;60419;48.880;18.036;2023-02-01T11:29:19;98800.56;;;2.04;78.26
72428;BME280;60419;48.880;18.036;2023-02-01T11:32:08;98794.34;;;2.31;78.09
72428;BME280;60419;48.880;18.036;2023-02-01T11:35:04;98803.47;;;2.40;78.12
72428;BME280;60419;48.880;18.036;2023-02-01T11:37:57;98815.44;;;1.95;79.39
72428;BME280;60419;48.880;18.036;2023-02-01T11:40:44;98811.94;;;1.62;80.61
72428;BME280;60419;48.880;18.036;2023-02-01T11:43:29;98808.78;;;1.38;81.70
72428;BME280;60419;48.880;18.036;2023-02-01T11:46:18;98809.31;;;1.13;82.64
72428;BME280;60419;48.880;18.036;2023-02-01T11:52:14;98789.38;;;1.16;82.60
72428;BME280;60419;48.880;18.036;2023-02-01T11:58:18;98774.47;;;1.69;81.05
72428;BME280;60419;48.880;18.036;2023-02-01T12:07:11;98750.66;;;1.90;80.36
72428;BME280;60419;48.880;18.036;2023-02-01T12:23:00;98759.97;;;2.29;79.97
72428;BME280;60419;48.880;18.036;2023-02-01T12:28:48;98742.13;;;2.98;77.62
72428;BME280;60419;48.880;18.036;2023-02-01T12:34:57;98744.88;;;3.44;74.98
72428;BME280;60419;48.880;18.036;2023-02-01T12:41:00;98734.22;;;3.59;75.43
72428;BME280;60419;48.880;18.036;2023-02-01T12:43:57;98732.03;;;4.02;74.01
72428;BME280;60419;48.880;18.036;2023-02-01T12:46:47;98736.06;;;3.33;74.94
72428;BME280;60419;48.880;18.036;2023-02-01T12:49:52;98737.41;;;3.41;72.81
72428;BME280;60419;48.880;18.036;2023-02-01T12:52:44;98736.88;;;3.75;71.38
72428;BME280;60419;48.880;18.036;2023-02-01T12:55:36;98745.69;;;3.55;70.18
72428;BME280;60419;48.880;18.036;2023-02-01T12:58:45;98688.53;;;3.56;69.62
72428;BME280;60419;48.880;18.036;2023-02-01T13:01:42;98710.09;;;4.16;69.02
72428;BME280;60419;48.880;18.036;2023-02-01T13:04:34;98713.03;;;4.14;68.93
72428;BME280;60419;48.880;18.036;2023-02-01T13:07:26;98710.19;;;3.70;68.37
72428;BME280;60419;48.880;18.036;2023-02-01T13:13:44;98724.03;;;3.77;69.55
72428;BME280;60419;48.880;18.036;2023-02-01T13:16:34;98715.78;;;3.78;69.60
72428;BME280;60419;48.880;18.036;2023-02-01T13:19:26;98711.22;;;3.69;70.43
72428;BME280;60419;48.880;18.036;2023-02-01T13:25:12;98695.91;;;4.20;69.26
72428;BME280;60419;48.880;18.036;2023-02-01T13:28:05;98701.88;;;3.66;71.72
72428;BME280;60419;48.880;18.036;2023-02-01T13:31:17;98694.16;;;3.49;71.86
72428;BME280;60419;48.880;18.036;2023-02-01T13:40:39;98676.41;;;4.15;69.49
72428;BME280;60419;48.880;18.036;2023-02-01T13:43:29;98680.09;;;4.29;68.88
72428;BME280;60419;48.880;18.036;2023-02-01T13:46:16;98682.50;;;4.31;68.22
72428;BME280;60419;48.880;18.036;2023-02-01T13:49:02;98676.94;;;4.27;68.31
72428;BME280;60419;48.880;18.036;2023-02-01T13:51:52;98669.00;;;4.66;67.41
72428;BME280;60419;48.880;18.036;2023-02-01T13:54:39;98673.66;;;4.40;65.64
72428;BME280;60419;48.880;18.036;2023-02-01T13:57:37;98679.06;;;4.20;66.87
72428;BME280;60419;48.880;18.036;2023-02-01T14:00:29;98664.16;;;4.74;65.98
72428;BME280;60419;48.880;18.036;2023-02-01T14:03:18;98658.69;;;4.34;66.23
72428;BME280;60419;48.880;18.036;2023-02-01T14:06:34;98676.69;;;4.78;65.89
72428;BME280;60419;48.880;18.036;2023-02-01T14:09:32;98665.84;;;4.49;65.86
72428;BME280;60419;48.880;18.036;2023-02-01T14:12:44;98655.09;;;4.64;66.76
72428;BME280;60419;48.880;18.036;2023-02-01T14:15:30;98643.66;;;4.48;64.59
72428;BME280;60419;48.880;18.036;2023-02-01T14:26:53;98645.72;;;4.67;65.47
72428;BME280;60419;48.880;18.036;2023-02-01T14:29:49;98643.44;;;4.40;65.74
72428;BME280;60419;48.880;18.036;2023-02-01T14:32:41;98625.03;;;4.28;65.63
72428;BME280;60419;48.880;18.036;2023-02-01T14:35:29;98638.53;;;4.57;65.34
72428;BME280;60419;48.880;18.036;2023-02-01T14:38:15;98625.00;;;4.33;64.69
72428;BME280;60419;48.880;18.036;2023-02-01T14:41:30;98628.78;;;4.32;64.80
72428;BME280;60419;48.880;18.036;2023-02-01T14:44:24;98617.59;;;4.20;65.50
72428;BME280;60419;48.880;18.036;2023-02-01T14:47:27;98628.19;;;4.40;64.94
72428;BME280;60419;48.880;18.036;2023-02-01T14:53:21;98624.34;;;4.02;64.83
72428;BME280;60419;48.880;18.036;2023-02-01T14:56:14;98643.22;;;4.26;65.28
72428;BME280;60419;48.880;18.036;2023-02-01T14:59:08;98638.66;;;4.32;64.53
72428;BME280;60419;48.880;18.036;2023-02-01T15:01:58;98626.63;;;4.29;64.60
72428;BME280;60419;48.880;18.036;2023-02-01T15:04:44;98631.13;;;4.39;64.20
72428;BME280;60419;48.880;18.036;2023-02-01T15:07:29;98633.97;;;4.58;63.95
72428;BME280;60419;48.880;18.036;2023-02-01T15:10:15;98636.47;;;4.39;65.04
72428;BME280;60419;48.880;18.036;2023-02-01T15:13:00;98634.44;;;4.15;65.60
72428;BME280;60419;48.880;18.036;2023-02-01T15:16:09;98642.22;;;4.12;65.55
72428;BME280;60419;48.880;18.036;2023-02-01T15:19:10;98636.81;;;4.27;65.69
72428;BME280;60419;48.880;18.036;2023-02-01T15:21:58;98625.59;;;4.25;66.16
72428;BME280;60419;48.880;18.036;2023-02-01T15:24:43;98635.44;;;4.35;66.07
72428;BME280;60419;48.880;18.036;2023-02-01T15:27:29;98648.28;;;4.33;65.92
72428;BME280;60419;48.880;18.036;2023-02-01T15:30:22;98649.41;;;4.21;65.56
72428;BME280;60419;48.880;18.036;2023-02-01T15:33:16;98644.78;;;4.42;65.26
72428;BME280;60419;48.880;18.036;2023-02-01T15:39:20;98657.47;;;4.06;64.84
72428;BME280;60419;48.880;18.036;2023-02-01T15:42:12;98664.63;;;4.16;63.83
72428;BME280;60419;48.880;18.036;2023-02-01T15:45:01;98680.94;;;4.30;63.52
72428;BME280;60419;48.880;18.036;2023-02-01T15:47:48;98672.94;;;4.19;63.81
72428;BME280;60419;48.880;18.036;2023-02-01T15:50:39;98698.88;;;4.24;63.30
72428;BME280;60419;48.880;18.036;2023-02-01T15:53:25;98714.09;;;4.18;62.62
72428;BME280;60419;48.880;18.036;2023-02-01T15:56:16;98683.78;;;4.48;62.07
72428;BME280;60419;48.880;18.036;2023-02-01T15:59:15;98725.31;;;4.25;62.86
72428;BME280;60419;48.880;18.036;2023-02-01T16:02:01;98701.78;;;4.33;62.52
72428;BME280;60419;48.880;18.036;2023-02-01T16:04:47;98702.28;;;4.40;62.21
72428;BME280;60419;48.880;18.036;2023-02-01T16:07:35;98697.19;;;4.38;62.89
72428;BME280;60419;48.880;18.036;2023-02-01T16:10:25;98706.59;;;4.25;63.27
72428;BME280;60419;48.880;18.036;2023-02-01T16:13:12;98718.63;;;4.23;62.76
72428;BME280;60419;48.880;18.036;2023-02-01T16:15:58;98718.84;;;4.42;62.65
72428;BME280;60419;48.880;18.036;2023-02-01T16:18:43;98728.47;;;4.43;61.98
72428;BME280;60419;48.880;18.036;2023-02-01T16:21:29;98719.69;;;4.37;61.86
72428;BME280;60419;48.880;18.036;2023-02-01T16:24:15;98681.16;;;4.38;61.81
72428;BME280;60419;48.880;18.036;2023-02-01T16:27:00;98716.16;;;4.42;61.90
72428;BME280;60419;48.880;18.036;2023-02-01T16:29:45;98711.94;;;4.25;62.32
72428;BME280;60419;48.880;18.036;2023-02-01T16:32:30;98694.75;;;4.47;61.46
72428;BME280;60419;48.880;18.036;2023-02-01T16:35:24;98715.72;;;4.14;62.27
72428;BME280;60419;48.880;18.036;2023-02-01T16:38:14;98710.91;;;4.21;61.83